createdAt,value
2022-08-14T00:00:23.973Z,22.40
2022-08-14T00:02:56.480Z,22.30
2022-08-14T00:05:30.156Z,22.40
2022-08-14T00:08:03.691Z,22.40
2022-08-14T00:10:51.220Z,22.30
2022-08-14T00:13:29.444Z,22.40
2022-08-14T00:16:03.609Z,22.40
2022-08-14T00:19:06.401Z,22.40
2022-08-14T00:21:31.168Z,22.50
2022-08-14T00:24:04.809Z,22.40
2022-08-14T00:26:36.561Z,22.20
2022-08-14T00:29:09.234Z,22.20
2022-08-14T00:31:45.729Z,22.10
2022-08-14T00:34:36.275Z,22.10
2022-08-14T00:37:09.981Z,22.10
2022-08-14T00:39:42.629Z,22.10
2022-08-14T00:42:52.698Z,22.20
2022-08-14T00:45:10.161Z,20.80
2022-08-14T00:47:46.770Z,22.20
2022-08-14T00:50:22.040Z,22.20
2022-08-14T00:52:56.251Z,22.10
2022-08-14T00:55:29.961Z,22.00
2022-08-14T00:58:32.554Z,22.10
2022-08-14T01:01:10.130Z,22.00
2022-08-14T01:03:43.416Z,22.00
2022-08-14T01:06:18.789Z,22.00
2022-08-14T01:08:58.147Z,22.10
2022-08-14T01:11:35.358Z,22.00
2022-08-14T01:14:25.880Z,22.10
2022-08-14T01:17:00.594Z,22.10
2022-08-14T01:19:50.882Z,21.70
2022-08-14T01:22:26.608Z,21.60
2022-08-14T01:24:59.073Z,21.60
2022-08-14T01:27:36.586Z,21.80
2022-08-14T01:30:27.783Z,21.60
2022-08-14T01:33:00.078Z,21.60
2022-08-14T01:36:03.477Z,21.30
2022-08-14T01:38:26.035Z,21.20
2022-08-14T01:40:58.153Z,21.40
2022-08-14T01:43:38.627Z,21.30
2022-08-14T01:46:11.638Z,21.30
2022-08-14T01:48:58.343Z,21.30
2022-08-14T01:51:32.055Z,21.20
2022-08-14T01:54:10.815Z,21.20
2022-08-14T01:56:46.531Z,21.10
2022-08-14T01:59:26.930Z,20.90
2022-08-14T02:02:19.049Z,21.00
2022-08-14T02:04:56.784Z,21.00
2022-08-14T02:07:44.957Z,21.00
2022-08-14T02:10:27.276Z,21.00
2022-08-14T02:12:59.424Z,21.00
2022-08-14T02:15:32.369Z,20.90
2022-08-14T02:18:04.319Z,21.10
2022-08-14T02:20:36.904Z,21.10
2022-08-14T02:23:09.306Z,21.20
2022-08-14T02:25:41.839Z,21.10
2022-08-14T02:28:25.153Z,21.10
2022-08-14T02:31:09.255Z,21.00
2022-08-14T02:33:42.088Z,20.90
2022-08-14T02:37:06.579Z,21.00
2022-08-14T02:39:11.170Z,20.90
2022-08-14T02:41:58.158Z,20.90
2022-08-14T02:44:31.123Z,21.10
2022-08-14T02:47:02.923Z,21.00
2022-08-14T02:49:39.885Z,20.80
2022-08-14T02:52:26.968Z,20.90
2022-08-14T02:55:07.609Z,21.00
2022-08-14T02:57:41.135Z,20.90
2022-08-14T03:00:18.664Z,20.70
2022-08-14T03:02:58.514Z,20.60
2022-08-14T03:05:36.187Z,20.80
2022-08-14T03:08:15.363Z,20.80
2022-08-14T03:10:50.125Z,20.70
2022-08-14T03:13:22.953Z,20.80
2022-08-14T03:15:58.083Z,19.80
2022-08-14T03:18:32.806Z,20.90
2022-08-14T03:21:07.736Z,20.80
2022-08-14T03:23:42.061Z,20.90
2022-08-14T03:26:18.536Z,21.00
2022-08-14T03:29:03.980Z,21.20
2022-08-14T03:31:40.399Z,21.20
2022-08-14T03:34:24.970Z,20.70
2022-08-14T03:37:50.798Z,20.60
2022-08-14T03:40:06.690Z,20.50
2022-08-14T03:42:44.060Z,20.80
2022-08-14T03:45:34.748Z,20.80
2022-08-14T03:48:30.167Z,21.10
2022-08-14T03:51:04.596Z,20.90
2022-08-14T03:53:43.264Z,20.90
2022-08-14T03:56:17.931Z,20.80
2022-08-14T03:58:56.007Z,20.70
2022-08-14T04:01:39.048Z,20.70
2022-08-14T04:04:14.167Z,20.50
2022-08-14T04:06:51.740Z,20.60
2022-08-14T04:09:26.824Z,20.70
2022-08-14T04:12:00.325Z,20.80
2022-08-14T04:14:37.338Z,20.40
2022-08-14T04:17:11.650Z,19.50
2022-08-14T04:19:45.784Z,19.20
2022-08-14T04:22:22.587Z,19.30
2022-08-14T04:24:54.772Z,19.30
2022-08-14T04:27:28.279Z,19.10
2022-08-14T04:30:05.478Z,18.90
2022-08-14T04:32:58.294Z,19.10
2022-08-14T04:35:55.363Z,19.30
2022-08-14T04:38:42.288Z,18.90
2022-08-14T04:41:33.456Z,19.20
2022-08-14T04:44:05.944Z,19.60
2022-08-14T04:46:55.299Z,19.80
2022-08-14T04:49:30.114Z,19.90
2022-08-14T04:52:15.357Z,19.90
2022-08-14T04:54:55.463Z,19.70
2022-08-14T04:57:28.040Z,19.90
2022-08-14T05:00:01.232Z,19.70
2022-08-14T05:02:34.944Z,20.30
2022-08-14T05:05:08.815Z,19.10
2022-08-14T05:07:54.211Z,18.90
2022-08-14T05:10:32.330Z,18.70
2022-08-14T05:13:12.841Z,18.80
2022-08-14T05:15:47.980Z,18.80
2022-08-14T05:19:16.993Z,18.90
2022-08-14T05:21:58.350Z,18.90
2022-08-14T05:24:17.652Z,18.90
2022-08-14T05:26:50.637Z,19.00
2022-08-14T05:29:24.313Z,19.00
2022-08-14T05:31:57.543Z,19.10
2022-08-14T05:34:31.756Z,19.20
2022-08-14T05:37:06.816Z,19.50
2022-08-14T05:39:41.202Z,19.80
2022-08-14T05:42:22.228Z,19.80
2022-08-14T05:44:59.754Z,20.00
2022-08-14T05:47:38.874Z,19.90
2022-08-14T05:50:19.256Z,20.10
2022-08-14T05:52:52.534Z,19.70
2022-08-14T05:55:25.575Z,19.90
2022-08-14T05:58:00.322Z,19.60
2022-08-14T06:00:43.465Z,19.70
2022-08-14T06:03:17.514Z,19.70
2022-08-14T06:05:54.465Z,19.70
2022-08-14T06:08:36.600Z,19.70
2022-08-14T06:11:14.863Z,20.00
2022-08-14T06:13:52.471Z,20.10
2022-08-14T06:16:25.051Z,19.90
2022-08-14T06:18:59.570Z,19.90
2022-08-14T06:21:32.724Z,19.90
2022-08-14T06:24:05.346Z,19.90
2022-08-14T06:26:43.200Z,20.00
2022-08-14T06:29:25.489Z,20.10
2022-08-14T06:32:38.754Z,20.30
2022-08-14T06:35:11.182Z,20.40
2022-08-14T06:37:58.292Z,20.60
2022-08-14T06:40:42.854Z,20.80
2022-08-14T06:43:16.954Z,20.90
2022-08-14T06:45:54.461Z,21.10
2022-08-14T06:48:29.420Z,21.30
2022-08-14T06:51:04.494Z,21.20
2022-08-14T06:53:38.161Z,21.40
2022-08-14T06:56:11.639Z,21.40
2022-08-14T06:58:44.251Z,21.20
2022-08-14T07:01:35.528Z,21.10
2022-08-14T07:04:25.778Z,21.30
2022-08-14T07:06:59.199Z,21.50
2022-08-14T07:09:40.574Z,21.70
2022-08-14T07:12:54.681Z,21.80
2022-08-14T07:15:16.315Z,21.90
2022-08-14T07:17:51.999Z,21.80
2022-08-14T07:20:31.179Z,21.70
2022-08-14T07:23:08.878Z,21.80
2022-08-14T07:25:45.115Z,21.90
2022-08-14T07:28:24.169Z,22.00
2022-08-14T07:31:05.062Z,22.10
2022-08-14T07:33:45.677Z,22.20
2022-08-14T07:36:27.930Z,22.30
2022-08-14T07:39:13.316Z,22.50
2022-08-14T07:41:46.016Z,23.80
2022-08-14T07:44:32.957Z,25.40
2022-08-14T07:47:11.361Z,26.50
2022-08-14T07:49:55.387Z,28.40
2022-08-14T07:52:30.652Z,28.80
2022-08-14T07:55:05.953Z,29.80
2022-08-14T07:57:44.776Z,29.80
2022-08-14T08:00:31.648Z,30.20
2022-08-14T08:03:11.486Z,28.60
2022-08-14T08:05:45.464Z,28.50
2022-08-14T08:08:26.927Z,28.90
2022-08-14T08:11:03.730Z,28.70
2022-08-14T08:13:49.115Z,29.50
2022-08-14T08:16:29.047Z,30.10
2022-08-14T08:19:12.433Z,29.70
2022-08-14T08:21:47.697Z,30.30
2022-08-14T08:24:20.960Z,29.60
2022-08-14T08:26:53.687Z,31.00
2022-08-14T08:29:29.003Z,30.60
2022-08-14T08:32:06.058Z,30.30
2022-08-14T08:34:48.500Z,30.70
2022-08-14T08:37:22.162Z,31.20
2022-08-14T08:40:02.376Z,31.60
2022-08-14T08:42:41.202Z,32.20
2022-08-14T08:45:17.329Z,31.40
2022-08-14T08:47:50.581Z,30.80
2022-08-14T08:53:08.083Z,32.70
2022-08-14T08:55:44.512Z,31.60
2022-08-14T08:58:24.893Z,31.50
2022-08-14T09:00:59.830Z,32.90
2022-08-14T09:03:32.716Z,31.40
2022-08-14T09:06:09.529Z,31.40
2022-08-14T09:08:58.741Z,31.40
2022-08-14T09:11:31.342Z,33.00
2022-08-14T09:14:05.620Z,32.90
2022-08-14T09:16:37.887Z,33.00
2022-08-14T09:19:11.478Z,31.80
2022-08-14T09:21:43.427Z,31.50
2022-08-14T09:24:29.414Z,30.90
2022-08-14T09:27:07.464Z,31.70
2022-08-14T09:29:40.268Z,31.10
2022-08-14T09:32:58.150Z,31.30
2022-08-14T09:35:47.956Z,31.80
2022-08-14T09:39:04.219Z,32.30
2022-08-14T09:42:21.140Z,31.60
2022-08-14T09:45:18.214Z,32.50
2022-08-14T09:47:52.799Z,31.70
2022-08-14T09:50:30.148Z,31.40
2022-08-14T09:53:17.746Z,31.70
2022-08-14T09:55:59.044Z,32.70
2022-08-14T09:58:43.303Z,33.40
2022-08-14T10:01:17.368Z,32.80
2022-08-14T10:03:56.748Z,32.20
2022-08-14T10:06:31.988Z,31.90
2022-08-14T10:09:06.418Z,31.60
2022-08-14T10:11:59.739Z,31.60
2022-08-14T10:14:36.567Z,31.70
2022-08-14T10:17:09.649Z,32.70
2022-08-14T10:19:49.925Z,33.10
2022-08-14T10:23:15.507Z,33.20
2022-08-14T10:25:23.056Z,33.60
2022-08-14T10:27:58.567Z,32.00
2022-08-14T10:30:38.840Z,32.30
2022-08-14T10:33:10.669Z,32.70
2022-08-14T10:35:47.862Z,32.40
2022-08-14T10:38:34.278Z,32.10
2022-08-14T10:41:15.256Z,32.20
2022-08-14T10:44:21.096Z,32.20
2022-08-14T10:47:40.744Z,31.80
2022-08-14T10:50:01.714Z,31.70
2022-08-14T10:52:35.604Z,31.50
2022-08-14T10:55:14.773Z,31.70
2022-08-14T10:57:55.048Z,32.00
2022-08-14T11:00:30.354Z,32.50
2022-08-14T11:03:17.307Z,32.80
2022-08-14T11:06:01.122Z,33.40
2022-08-14T11:08:34.457Z,33.80
2022-08-14T11:11:07.115Z,33.80
2022-08-14T11:13:46.823Z,33.80
2022-08-14T11:16:19.654Z,33.60
2022-08-14T11:18:55.796Z,33.80
2022-08-14T11:21:34.291Z,32.40
2022-08-14T11:24:53.843Z,33.10
2022-08-14T11:27:07.346Z,33.10
2022-08-14T11:29:42.422Z,32.70
2022-08-14T11:32:15.036Z,32.20
2022-08-14T11:34:48.287Z,31.90
2022-08-14T11:37:31.579Z,31.90
2022-08-14T11:40:24.264Z,31.90
2022-08-14T11:43:04.221Z,32.30
2022-08-14T11:45:39.252Z,32.50
2022-08-14T11:49:02.736Z,32.60
2022-08-14T11:51:18.234Z,32.30
2022-08-14T11:53:57.196Z,31.90
2022-08-14T11:56:37.829Z,31.50
2022-08-14T11:59:26.449Z,31.70
2022-08-14T12:03:00.906Z,31.50
2022-08-14T12:05:09.273Z,31.80
2022-08-14T12:07:51.813Z,31.90
2022-08-14T12:10:26.056Z,31.80
2022-08-14T12:12:59.857Z,30.70
2022-08-14T12:15:35.943Z,30.30
2022-08-14T12:18:11.366Z,30.60
2022-08-14T12:20:59.418Z,30.80
2022-08-14T12:23:32.417Z,30.60
2022-08-14T12:26:12.145Z,30.60
2022-08-14T12:29:16.818Z,30.60
2022-08-14T12:32:04.230Z,30.30
2022-08-14T12:34:37.400Z,30.10
2022-08-14T12:37:10.060Z,29.80
2022-08-14T12:39:44.343Z,29.80
2022-08-14T12:42:34.275Z,29.90
2022-08-14T12:45:08.272Z,29.40
2022-08-14T12:47:42.818Z,29.50
2022-08-14T12:50:15.021Z,29.40
2022-08-14T12:53:01.850Z,29.40
2022-08-14T12:56:18.731Z,29.80
2022-08-14T12:58:51.908Z,29.30
2022-08-14T13:01:27.543Z,29.60
2022-08-14T13:04:12.934Z,29.70
2022-08-14T13:06:50.770Z,29.20
2022-08-14T13:09:36.438Z,29.40
2022-08-14T13:12:31.847Z,29.60
2022-08-14T13:15:08.938Z,29.10
2022-08-14T13:17:47.007Z,28.80
2022-08-14T13:20:26.591Z,28.60
2022-08-14T13:22:59.312Z,29.00
2022-08-14T13:25:34.650Z,29.30
2022-08-14T13:28:11.237Z,29.30
2022-08-14T13:30:45.799Z,29.10
2022-08-14T13:33:21.168Z,28.80
2022-08-14T13:35:54.817Z,28.60
2022-08-14T13:38:27.977Z,28.90
2022-08-14T13:41:00.759Z,29.10
2022-08-14T13:43:36.800Z,28.90
2022-08-14T13:46:21.413Z,28.80
2022-08-14T13:49:00.102Z,28.60
2022-08-14T13:51:38.644Z,28.50
2022-08-14T13:54:14.172Z,28.50
2022-08-14T13:56:49.712Z,28.40
2022-08-14T13:59:37.756Z,28.00
2022-08-14T14:02:11.378Z,27.90
2022-08-14T14:05:05.209Z,27.80
2022-08-14T14:07:39.185Z,28.10
2022-08-14T14:10:17.403Z,28.00
2022-08-14T14:12:56.469Z,28.10
2022-08-14T14:15:33.898Z,28.20
2022-08-14T14:18:34.051Z,28.10
2022-08-14T14:21:08.025Z,28.20
2022-08-14T14:23:43.845Z,28.30
2022-08-14T14:26:23.483Z,28.10
2022-08-14T14:28:57.663Z,28.40
2022-08-14T14:31:32.441Z,28.20
2022-08-14T14:34:07.766Z,28.70
2022-08-14T14:37:04.904Z,28.50
2022-08-14T14:40:53.461Z,28.60
2022-08-14T14:42:35.404Z,28.80
2022-08-14T14:45:15.572Z,28.70
2022-08-14T14:47:59.173Z,28.60
2022-08-14T14:50:32.614Z,28.60
2022-08-14T14:53:12.668Z,28.50
2022-08-14T14:56:48.257Z,28.30
2022-08-14T14:58:42.948Z,28.30
2022-08-14T15:01:26.922Z,28.20
2022-08-14T15:04:04.193Z,28.50
2022-08-14T15:06:47.545Z,28.60
2022-08-14T15:09:20.919Z,28.30
2022-08-14T15:11:57.571Z,28.40
2022-08-14T15:14:55.385Z,28.30
2022-08-14T15:17:23.515Z,28.30
2022-08-14T15:19:57.309Z,28.60
2022-08-14T15:22:30.526Z,28.80
2022-08-14T15:25:02.763Z,28.80
2022-08-14T15:27:34.814Z,28.60
2022-08-14T15:30:09.820Z,28.60
2022-08-14T15:32:43.236Z,28.40
2022-08-14T15:35:15.079Z,28.50
2022-08-14T15:37:55.626Z,28.20
2022-08-14T15:40:28.023Z,28.10
2022-08-14T15:43:01.220Z,27.80
2022-08-14T15:45:34.073Z,27.80
2022-08-14T15:48:09.037Z,27.80
2022-08-14T15:50:54.746Z,27.70
2022-08-14T15:53:26.796Z,27.70
2022-08-14T15:56:06.464Z,27.70
2022-08-14T15:58:41.683Z,27.50
2022-08-14T16:01:43.327Z,27.20
2022-08-14T16:04:17.204Z,27.00
2022-08-14T16:06:55.378Z,27.00
2022-08-14T16:09:27.532Z,27.10
2022-08-14T16:12:00.169Z,26.90
2022-08-14T16:14:34.174Z,27.00
2022-08-14T16:17:09.681Z,27.10
2022-08-14T16:19:46.164Z,26.90
2022-08-14T16:22:58.757Z,27.10
2022-08-14T16:25:12.218Z,27.00
2022-08-14T16:27:50.999Z,27.00
2022-08-14T16:30:27.981Z,27.00
2022-08-14T16:33:02.130Z,27.00
2022-08-14T16:35:43.139Z,27.10
2022-08-14T16:38:48.308Z,27.20
2022-08-14T16:41:26.656Z,27.10
2022-08-14T16:44:05.904Z,27.10
2022-08-14T16:46:48.544Z,27.00
2022-08-14T16:49:26.129Z,26.90
2022-08-14T16:52:25.990Z,26.90
2022-08-14T16:55:13.942Z,27.10
2022-08-14T16:57:52.231Z,27.10
2022-08-14T17:00:43.708Z,27.10
2022-08-14T17:03:17.855Z,27.00
2022-08-14T17:05:50.960Z,27.10
2022-08-14T17:08:46.061Z,27.00
2022-08-14T17:11:16.814Z,27.00
2022-08-14T17:14:00.405Z,26.70
2022-08-14T17:16:37.266Z,26.60
2022-08-14T17:19:14.207Z,26.60
2022-08-14T17:21:51.976Z,26.50
2022-08-14T17:27:23.102Z,26.40
2022-08-14T17:29:57.616Z,26.30
2022-08-14T17:32:44.582Z,26.00
2022-08-14T17:38:39.286Z,25.80
2022-08-14T17:41:27.178Z,25.90
2022-08-14T17:44:10.724Z,25.80
2022-08-14T17:46:57.037Z,25.80
2022-08-14T17:49:32.315Z,25.80
2022-08-14T17:52:17.055Z,25.80
2022-08-14T17:54:52.595Z,25.90
2022-08-14T17:57:35.526Z,25.90
2022-08-14T18:00:18.333Z,25.90
2022-08-14T18:02:52.048Z,25.90
2022-08-14T18:06:07.534Z,25.80
2022-08-14T18:08:33.687Z,25.80
2022-08-14T18:11:16.785Z,25.80
2022-08-14T18:13:52.718Z,25.80
2022-08-14T18:16:28.002Z,25.80
2022-08-14T18:19:03.573Z,25.80
2022-08-14T18:21:56.198Z,25.70
2022-08-14T18:24:31.920Z,25.70
2022-08-14T18:27:13.027Z,25.60
2022-08-14T18:29:58.028Z,25.50
2022-08-14T18:32:33.317Z,25.40
2022-08-14T18:35:13.197Z,25.40
2022-08-14T18:37:56.128Z,25.40
2022-08-14T18:40:34.465Z,25.40
2022-08-14T18:43:07.125Z,25.50
2022-08-14T18:46:01.122Z,25.40
2022-08-14T18:48:50.410Z,25.50
2022-08-14T18:51:45.277Z,25.50
2022-08-14T18:54:32.773Z,25.50
2022-08-14T18:57:09.658Z,25.40
2022-08-14T18:59:43.492Z,25.40
2022-08-14T19:02:30.740Z,25.40
2022-08-14T19:05:04.487Z,25.30
2022-08-14T19:07:36.314Z,25.40
2022-08-14T19:10:16.664Z,25.40
2022-08-14T19:12:57.058Z,25.40
2022-08-14T19:15:36.849Z,25.30
2022-08-14T19:18:29.767Z,25.40
2022-08-14T19:21:13.258Z,25.40
2022-08-14T19:24:04.223Z,25.30
2022-08-14T19:27:16.461Z,25.30
2022-08-14T19:30:11.028Z,25.20
2022-08-14T19:32:56.105Z,25.10
2022-08-14T19:35:55.037Z,25.10
2022-08-14T19:38:58.066Z,25.00
2022-08-14T19:41:34.386Z,24.90
2022-08-14T19:44:15.930Z,24.90
2022-08-14T19:47:01.118Z,24.80
2022-08-14T19:50:08.728Z,24.80
2022-08-14T19:52:40.075Z,24.80
2022-08-14T19:55:17.287Z,24.80
2022-08-14T19:57:58.649Z,24.80
2022-08-14T20:00:31.104Z,24.70
2022-08-14T20:03:10.814Z,24.70
2022-08-14T20:05:45.717Z,24.70
2022-08-14T20:11:01.367Z,24.60
2022-08-14T20:11:43.040Z,24.60
2022-08-14T20:14:28.243Z,24.60
2022-08-14T20:17:06.752Z,24.50
2022-08-14T20:19:41.758Z,24.60
2022-08-14T20:22:35.306Z,24.60
2022-08-14T20:25:16.852Z,24.60
2022-08-14T20:27:59.489Z,24.60
2022-08-14T20:30:34.529Z,24.50
2022-08-14T20:33:10.885Z,24.60
2022-08-14T20:35:49.529Z,24.50
2022-08-14T20:38:33.302Z,24.60
2022-08-14T20:41:12.342Z,24.60
2022-08-14T20:44:06.511Z,24.60
2022-08-14T20:46:42.139Z,24.60
2022-08-14T20:49:19.163Z,24.70
2022-08-14T20:52:04.813Z,24.60
2022-08-14T20:54:50.693Z,24.60
2022-08-14T20:57:24.260Z,24.60
2022-08-14T20:59:57.194Z,24.50
2022-08-14T21:02:34.418Z,24.50
2022-08-14T21:05:22.466Z,24.50
2022-08-14T21:08:08.483Z,24.60
2022-08-14T21:10:44.734Z,24.60
2022-08-14T21:14:09.180Z,24.60
2022-08-14T21:16:33.239Z,24.60
2022-08-14T21:19:04.177Z,24.60
2022-08-14T21:21:41.608Z,24.50
2022-08-14T21:24:38.526Z,24.50
2022-08-14T21:27:20.054Z,24.50
2022-08-14T21:29:56.492Z,24.50
2022-08-14T21:32:46.792Z,24.50
2022-08-14T21:35:22.679Z,24.50
2022-08-14T21:37:57.022Z,24.50
2022-08-14T21:40:42.544Z,24.50
2022-08-14T21:43:21.581Z,24.50
2022-08-14T21:45:57.572Z,24.60
2022-08-14T21:48:34.061Z,24.70
2022-08-14T21:51:53.756Z,24.60
2022-08-14T21:54:04.114Z,24.60
2022-08-14T21:56:40.947Z,24.50
2022-08-14T21:59:32.745Z,24.30
2022-08-14T22:02:07.201Z,23.90
2022-08-14T22:04:41.408Z,23.70
2022-08-14T22:07:16.731Z,23.70
2022-08-14T22:09:54.992Z,23.60
2022-08-14T22:12:58.687Z,23.60
2022-08-14T22:15:20.735Z,23.60
2022-08-14T22:17:55.220Z,23.50
2022-08-14T22:20:29.162Z,23.50
2022-08-14T22:23:06.587Z,23.50
2022-08-14T22:25:41.868Z,23.30
2022-08-14T22:28:20.711Z,23.20
2022-08-14T22:30:55.039Z,23.10
2022-08-14T22:33:30.858Z,23.20
2022-08-14T22:36:24.885Z,23.20
2022-08-14T22:38:57.667Z,23.10
2022-08-14T22:41:42.271Z,23.00
2022-08-14T22:44:29.024Z,22.90
2022-08-14T22:47:01.366Z,22.90
2022-08-14T22:50:30.274Z,22.90
2022-08-14T22:52:33.290Z,23.10
2022-08-14T22:55:06.501Z,23.00
2022-08-14T22:57:43.317Z,23.00
2022-08-14T23:00:25.078Z,22.90
2022-08-14T23:03:02.049Z,22.50
2022-08-14T23:05:40.255Z,22.20
2022-08-14T23:08:57.017Z,22.00
2022-08-14T23:11:17.163Z,21.80
2022-08-14T23:13:49.844Z,21.70
2022-08-14T23:16:24.010Z,21.40
2022-08-14T23:18:57.259Z,21.20
2022-08-14T23:21:29.948Z,21.00
2022-08-14T23:24:03.080Z,21.10
2022-08-14T23:26:48.270Z,21.00
2022-08-14T23:29:22.796Z,20.80
2022-08-14T23:31:57.086Z,20.80
2022-08-14T23:34:32.165Z,20.70
2022-08-14T23:37:04.719Z,20.50
2022-08-14T23:39:39.222Z,20.10
2022-08-14T23:42:12.039Z,20.00
2022-08-14T23:44:50.186Z,19.90
2022-08-14T23:47:26.994Z,19.80
2022-08-14T23:50:00.933Z,19.70
2022-08-14T23:53:06.244Z,19.90
2022-08-14T23:55:33.749Z,19.90
2022-08-14T23:58:07.887Z,19.90
